sensor_id;sensor_type;location;lat;lon;timestamp;pressure;altitude;pressure_sealevel;temperature;humidity
28131;BME280;15418;42.634;23.374;2022-09-09T00:01:29;94572.31;;;17.68;100.00
28131;BME280;15418;42.634;23.374;2022-09-09T00:06:32;94563.63;;;17.66;100.00
28131;BME280;15418;42.634;23.374;2022-09-09T00:09:17;94513.22;;;17.36;100.00
28131;BME280;15418;42.634;23.374;2022-09-09T00:11:46;94535.94;;;17.36;100.00
28131;BME280;15418;42.634;23.374;2022-09-09T00:20:13;94556.59;;;17.43;100.00
28131;BME280;15418;42.634;23.374;2022-09-09T00:22:49;94532.25;;;17.41;100.00
28131;BME280;15418;42.634;23.374;2022-09-09T00:25:29;94537.13;;;17.44;100.00
28131;BME280;15418;42.634;23.374;2022-09-09T00:27:59;94561.50;;;17.63;100.00
28131;BME280;15418;42.634;23.374;2022-09-09T00:30:32;94546.91;;;17.45;100.00
28131;BME280;15418;42.634;23.374;2022-09-09T00:33:00;94539.88;;;17.53;100.00
28131;BME280;15418;42.634;23.374;2022-09-09T00:35:37;94550.34;;;17.60;100.00
28131;BME280;15418;42.634;23.374;2022-09-09T00:38:18;94518.06;;;17.39;100.00
28131;BME280;15418;42.634;23.374;2022-09-09T00:43:37;94439.44;;;16.91;100.00
28131;BME280;15418;42.634;23.374;2022-09-09T00:49:03;94520.81;;;17.48;100.00
28131;BME280;15418;42.634;23.374;2022-09-09T00:51:58;94469.69;;;17.26;100.00
28131;BME280;15418;42.634;23.374;2022-09-09T00:59:59;94436.19;;;16.88;100.00
28131;BME280;15418;42.634;23.374;2022-09-09T01:02:52;94514.69;;;17.42;100.00
28131;BME280;15418;42.634;23.374;2022-09-09T01:11:16;94457.25;;;17.11;100.00
28131;BME280;15418;42.634;23.374;2022-09-09T01:13:45;94450.00;;;17.06;100.00
28131;BME280;15418;42.634;23.374;2022-09-09T01:16:16;94505.50;;;17.38;100.00
28131;BME280;15418;42.634;23.374;2022-09-09T01:18:49;94526.91;;;17.27;100.00
28131;BME280;15418;42.634;23.374;2022-09-09T01:26:51;94499.09;;;17.02;100.00
28131;BME280;15418;42.634;23.374;2022-09-09T01:29:21;94476.66;;;16.92;100.00
28131;BME280;15418;42.634;23.374;2022-09-09T01:31:58;94491.88;;;17.15;100.00
28131;BME280;15418;42.634;23.374;2022-09-09T01:34:28;94483.97;;;17.05;100.00
28131;BME280;15418;42.634;23.374;2022-09-09T01:37:06;94460.34;;;16.86;100.00
28131;BME280;15418;42.634;23.374;2022-09-09T01:39:33;94477.91;;;16.85;100.00
28131;BME280;15418;42.634;23.374;2022-09-09T01:42:00;94498.44;;;17.06;100.00
28131;BME280;15418;42.634;23.374;2022-09-09T01:44:27;94475.16;;;16.85;100.00
28131;BME280;15418;42.634;23.374;2022-09-09T01:46:55;94517.38;;;17.25;100.00
28131;BME280;15418;42.634;23.374;2022-09-09T01:49:20;94513.66;;;17.20;100.00
28131;BME280;15418;42.634;23.374;2022-09-09T01:51:52;94530.97;;;17.47;100.00
28131;BME280;15418;42.634;23.374;2022-09-09T01:54:19;94513.84;;;17.33;100.00
28131;BME280;15418;42.634;23.374;2022-09-09T02:00:04;94536.13;;;17.40;100.00
28131;BME280;15418;42.634;23.374;2022-09-09T02:02:19;94541.78;;;17.44;100.00
28131;BME280;15418;42.634;23.374;2022-09-09T02:04:51;94548.16;;;17.30;100.00
28131;BME280;15418;42.634;23.374;2022-09-09T02:07:38;94545.22;;;17.18;100.00
28131;BME280;15418;42.634;23.374;2022-09-09T02:10:24;94542.50;;;17.27;100.00
28131;BME280;15418;42.634;23.374;2022-09-09T02:13:30;94529.88;;;17.08;100.00
28131;BME280;15418;42.634;23.374;2022-09-09T02:16:07;94456.88;;;16.40;100.00
28131;BME280;15418;42.634;23.374;2022-09-09T02:18:44;94545.38;;;16.90;100.00
28131;BME280;15418;42.634;23.374;2022-09-09T02:21:17;94475.97;;;16.54;100.00
28131;BME280;15418;42.634;23.374;2022-09-09T02:23:43;94474.81;;;16.78;100.00
28131;BME280;15418;42.634;23.374;2022-09-09T02:26:12;94516.88;;;17.23;100.00
28131;BME280;15418;42.634;23.374;2022-09-09T02:28:48;94505.72;;;17.10;100.00
28131;BME280;15418;42.634;23.374;2022-09-09T02:31:17;94467.56;;;16.82;100.00
28131;BME280;15418;42.634;23.374;2022-09-09T02:33:47;94502.63;;;17.03;100.00
28131;BME280;15418;42.634;23.374;2022-09-09T02:36:15;94469.09;;;16.66;100.00
28131;BME280;15418;42.634;23.374;2022-09-09T02:38:46;94480.56;;;16.68;100.00
28131;BME280;15418;42.634;23.374;2022-09-09T02:41:18;94495.56;;;16.48;100.00
28131;BME280;15418;42.634;23.374;2022-09-09T02:43:45;94517.06;;;16.63;100.00
28131;BME280;15418;42.634;23.374;2022-09-09T02:52:02;94551.88;;;16.94;100.00
28131;BME280;15418;42.634;23.374;2022-09-09T02:54:33;94559.28;;;16.71;100.00
28131;BME280;15418;42.634;23.374;2022-09-09T02:57:16;94508.78;;;16.32;100.00
28131;BME280;15418;42.634;23.374;2022-09-09T02:59:44;94529.94;;;16.40;100.00
28131;BME280;15418;42.634;23.374;2022-09-09T03:02:10;94502.31;;;16.05;100.00
28131;BME280;15418;42.634;23.374;2022-09-09T03:04:39;94507.59;;;16.01;100.00
28131;BME280;15418;42.634;23.374;2022-09-09T03:07:08;94545.34;;;16.13;100.00
28131;BME280;15418;42.634;23.374;2022-09-09T03:09:35;94489.34;;;15.74;100.00
28131;BME280;15418;42.634;23.374;2022-09-09T03:12:00;94528.53;;;16.06;100.00
28131;BME280;15418;42.634;23.374;2022-09-09T03:14:26;94475.06;;;15.77;100.00
28131;BME280;15418;42.634;23.374;2022-09-09T03:16:52;94563.69;;;16.35;100.00
28131;BME280;15418;42.634;23.374;2022-09-09T03:19:20;94483.75;;;15.79;100.00
28131;BME280;15418;42.634;23.374;2022-09-09T03:21:46;94556.06;;;16.23;100.00
28131;BME280;15418;42.634;23.374;2022-09-09T03:24:13;94558.72;;;16.01;100.00
28131;BME280;15418;42.634;23.374;2022-09-09T03:26:39;94546.41;;;15.89;100.00
28131;BME280;15418;42.634;23.374;2022-09-09T03:29:06;94457.78;;;15.31;100.00
28131;BME280;15418;42.634;23.374;2022-09-09T03:31:35;94475.84;;;15.41;100.00
28131;BME280;15418;42.634;23.374;2022-09-09T03:34:01;94548.84;;;15.91;100.00
28131;BME280;15418;42.634;23.374;2022-09-09T03:36:27;94509.47;;;15.78;100.00
28131;BME280;15418;42.634;23.374;2022-09-09T03:38:53;94552.06;;;15.93;100.00
28131;BME280;15418;42.634;23.374;2022-09-09T03:41:22;94550.78;;;15.90;100.00
28131;BME280;15418;42.634;23.374;2022-09-09T03:43:51;94488.56;;;15.59;100.00
28131;BME280;15418;42.634;23.374;2022-09-09T03:46:18;94524.16;;;15.82;100.00
28131;BME280;15418;42.634;23.374;2022-09-09T03:48:43;94501.69;;;15.71;100.00
28131;BME280;15418;42.634;23.374;2022-09-09T03:51:09;94500.09;;;15.84;100.00
28131;BME280;15418;42.634;23.374;2022-09-09T03:53:36;94526.56;;;15.98;100.00
28131;BME280;15418;42.634;23.374;2022-09-09T03:56:03;94510.38;;;15.87;100.00
28131;BME280;15418;42.634;23.374;2022-09-09T03:58:29;94531.59;;;16.04;100.00
28131;BME280;15418;42.634;23.374;2022-09-09T04:00:55;94557.97;;;16.23;100.00
28131;BME280;15418;42.634;23.374;2022-09-09T04:03:21;94562.25;;;16.38;100.00
28131;BME280;15418;42.634;23.374;2022-09-09T04:05:49;94529.91;;;16.17;100.00
28131;BME280;15418;42.634;23.374;2022-09-09T04:08:14;94475.94;;;16.00;100.00
28131;BME280;15418;42.634;23.374;2022-09-09T04:10:40;94560.38;;;16.70;100.00
28131;BME280;15418;42.634;23.374;2022-09-09T04:13:08;94497.53;;;16.33;100.00
28131;BME280;15418;42.634;23.374;2022-09-09T04:15:35;94575.09;;;16.74;100.00
28131;BME280;15418;42.634;23.374;2022-09-09T04:18:01;94502.94;;;16.24;100.00
28131;BME280;15418;42.634;23.374;2022-09-09T04:20:27;94489.28;;;16.02;100.00
28131;BME280;15418;42.634;23.374;2022-09-09T04:22:52;94483.63;;;15.98;100.00
28131;BME280;15418;42.634;23.374;2022-09-09T04:25:18;94470.78;;;16.21;100.00
28131;BME280;15418;42.634;23.374;2022-09-09T04:27:44;94507.56;;;16.38;100.00
28131;BME280;15418;42.634;23.374;2022-09-09T04:30:19;94528.00;;;16.40;100.00
28131;BME280;15418;42.634;23.374;2022-09-09T04:32:46;94545.47;;;16.53;100.00
28131;BME280;15418;42.634;23.374;2022-09-09T04:35:11;94538.25;;;16.58;100.00
28131;BME280;15418;42.634;23.374;2022-09-09T04:37:37;94554.78;;;16.75;100.00
28131;BME280;15418;42.634;23.374;2022-09-09T04:40:02;94482.22;;;16.23;100.00
28131;BME280;15418;42.634;23.374;2022-09-09T04:42:35;94564.00;;;16.79;100.00
28131;BME280;15418;42.634;23.374;2022-09-09T04:45:00;94545.81;;;16.83;100.00
28131;BME280;15418;42.634;23.374;2022-09-09T04:47:26;94549.94;;;16.72;100.00
28131;BME280;15418;42.634;23.374;2022-09-09T04:49:52;94581.53;;;17.01;100.00
28131;BME280;15418;42.634;23.374;2022-09-09T04:52:20;94520.59;;;16.64;100.00
28131;BME280;15418;42.634;23.374;2022-09-09T04:54:46;94521.47;;;17.04;100.00
28131;BME280;15418;42.634;23.374;2022-09-09T04:57:12;94513.09;;;17.01;100.00
28131;BME280;15418;42.634;23.374;2022-09-09T04:59:40;94508.81;;;17.17;100.00
28131;BME280;15418;42.634;23.374;2022-09-09T05:02:05;94510.13;;;17.29;100.00
28131;BME280;15418;42.634;23.374;2022-09-09T05:04:31;94475.78;;;17.14;100.00
28131;BME280;15418;42.634;23.374;2022-09-09T05:06:56;94481.09;;;17.19;100.00
28131;BME280;15418;42.634;23.374;2022-09-09T05:09:25;94524.72;;;17.47;100.00
28131;BME280;15418;42.634;23.374;2022-09-09T05:11:50;94503.09;;;17.45;100.00
28131;BME280;15418;42.634;23.374;2022-09-09T05:14:16;94492.25;;;17.23;100.00
28131;BME280;15418;42.634;23.374;2022-09-09T05:16:44;94525.53;;;17.65;100.00
28131;BME280;15418;42.634;23.374;2022-09-09T05:19:12;94445.19;;;17.20;100.00
28131;BME280;15418;42.634;23.374;2022-09-09T05:21:40;94463.22;;;17.22;100.00
28131;BME280;15418;42.634;23.374;2022-09-09T05:24:06;94475.84;;;17.40;100.00
28131;BME280;15418;42.634;23.374;2022-09-09T05:26:36;94472.81;;;17.50;100.00
28131;BME280;15418;42.634;23.374;2022-09-09T05:29:02;94482.81;;;17.64;100.00
28131;BME280;15418;42.634;23.374;2022-09-09T05:31:32;94438.94;;;17.38;100.00
28131;BME280;15418;42.634;23.374;2022-09-09T05:33:58;94456.84;;;17.52;100.00
28131;BME280;15418;42.634;23.374;2022-09-09T05:36:24;94486.91;;;17.93;100.00
28131;BME280;15418;42.634;23.374;2022-09-09T05:38:50;94492.91;;;18.04;100.00
28131;BME280;15418;42.634;23.374;2022-09-09T05:41:16;94426.56;;;17.58;100.00
28131;BME280;15418;42.634;23.374;2022-09-09T05:43:43;94477.72;;;18.06;100.00
28131;BME280;15418;42.634;23.374;2022-09-09T05:46:15;94507.25;;;18.44;100.00
28131;BME280;15418;42.634;23.374;2022-09-09T05:48:45;94450.28;;;18.32;100.00
28131;BME280;15418;42.634;23.374;2022-09-09T05:51:18;94522.47;;;19.07;100.00
28131;BME280;15418;42.634;23.374;2022-09-09T05:53:47;94499.03;;;19.09;100.00
28131;BME280;15418;42.634;23.374;2022-09-09T05:56:18;94511.03;;;19.35;100.00
28131;BME280;15418;42.634;23.374;2022-09-09T05:58:44;94466.78;;;19.27;100.00
28131;BME280;15418;42.634;23.374;2022-09-09T06:01:17;94484.72;;;19.55;100.00
28131;BME280;15418;42.634;23.374;2022-09-09T06:03:44;94519.50;;;19.89;100.00
28131;BME280;15418;42.634;23.374;2022-09-09T06:06:15;94527.22;;;19.96;100.00
28131;BME280;15418;42.634;23.374;2022-09-09T06:08:43;94498.63;;;19.58;100.00
28131;BME280;15418;42.634;23.374;2022-09-09T06:11:11;94482.53;;;19.48;100.00
28131;BME280;15418;42.634;23.374;2022-09-09T06:13:38;94506.59;;;19.81;100.00
28131;BME280;15418;42.634;23.374;2022-09-09T06:16:05;94505.75;;;19.81;100.00
28131;BME280;15418;42.634;23.374;2022-09-09T06:18:32;94502.19;;;19.89;100.00
28131;BME280;15418;42.634;23.374;2022-09-09T06:21:00;94515.88;;;20.19;100.00
28131;BME280;15418;42.634;23.374;2022-09-09T06:23:27;94501.25;;;20.06;100.00
28131;BME280;15418;42.634;23.374;2022-09-09T06:26:09;94515.69;;;20.24;100.00
28131;BME280;15418;42.634;23.374;2022-09-09T06:28:35;94489.31;;;20.23;100.00
28131;BME280;15418;42.634;23.374;2022-09-09T06:31:04;94495.41;;;20.29;100.00
28131;BME280;15418;42.634;23.374;2022-09-09T06:33:37;94504.72;;;20.57;100.00
28131;BME280;15418;42.634;23.374;2022-09-09T06:36:07;94529.13;;;20.80;100.00
28131;BME280;15418;42.634;23.374;2022-09-09T06:38:35;94494.16;;;20.81;100.00
28131;BME280;15418;42.634;23.374;2022-09-09T06:41:00;94466.13;;;20.79;100.00
28131;BME280;15418;42.634;23.374;2022-09-09T06:43:27;94450.00;;;21.39;100.00
28131;BME280;15418;42.634;23.374;2022-09-09T06:46:01;94511.66;;;22.62;100.00
28131;BME280;15418;42.634;23.374;2022-09-09T06:48:27;94504.44;;;23.02;95.08
28131;BME280;15418;42.634;23.374;2022-09-09T06:51:07;94471.28;;;23.66;90.93
28131;BME280;15418;42.634;23.374;2022-09-09T06:53:34;94511.59;;;24.54;85.64
28131;BME280;15418;42.634;23.374;2022-09-09T06:58:39;94517.63;;;24.99;83.29
28131;BME280;15418;42.634;23.374;2022-09-09T07:01:08;94496.66;;;25.94;77.44
28131;BME280;15418;42.634;23.374;2022-09-09T07:03:34;94514.63;;;26.58;70.03
28131;BME280;15418;42.634;23.374;2022-09-09T07:06:00;94506.88;;;25.63;74.49
28131;BME280;15418;42.634;23.374;2022-09-09T07:08:26;94486.00;;;26.23;71.13
28131;BME280;15418;42.634;23.374;2022-09-09T07:10:52;94522.75;;;26.43;71.81
28131;BME280;15418;42.634;23.374;2022-09-09T07:13:26;94502.97;;;25.91;72.22
28131;BME280;15418;42.634;23.374;2022-09-09T07:15:52;94483.38;;;27.02;65.11
28131;BME280;15418;42.634;23.374;2022-09-09T07:18:19;94461.25;;;27.13;64.46
28131;BME280;15418;42.634;23.374;2022-09-09T07:20:54;94512.09;;;28.03;59.79
28131;BME280;15418;42.634;23.374;2022-09-09T07:23:20;94507.94;;;28.31;57.54
28131;BME280;15418;42.634;23.374;2022-09-09T07:25:46;94491.50;;;28.12;56.92
28131;BME280;15418;42.634;23.374;2022-09-09T07:28:12;94469.00;;;27.86;58.83
28131;BME280;15418;42.634;23.374;2022-09-09T07:30:38;94468.28;;;27.93;56.02
28131;BME280;15418;42.634;23.374;2022-09-09T07:33:04;94485.31;;;27.39;59.57
28131;BME280;15418;42.634;23.374;2022-09-09T07:35:30;94473.09;;;28.03;57.97
28131;BME280;15418;42.634;23.374;2022-09-09T07:37:55;94497.03;;;28.75;55.30
28131;BME280;15418;42.634;23.374;2022-09-09T07:40:21;94470.47;;;28.25;55.23
28131;BME280;15418;42.634;23.374;2022-09-09T07:42:47;94468.47;;;28.22;57.41
28131;BME280;15418;42.634;23.374;2022-09-09T07:45:13;94469.47;;;28.62;53.88
28131;BME280;15418;42.634;23.374;2022-09-09T07:47:39;94485.97;;;29.11;50.97
28131;BME280;15418;42.634;23.374;2022-09-09T07:50:08;94486.38;;;29.13;49.88
28131;BME280;15418;42.634;23.374;2022-09-09T07:52:34;94515.50;;;29.23;50.80
28131;BME280;15418;42.634;23.374;2022-09-09T07:55:00;94464.66;;;28.63;51.35
28131;BME280;15418;42.634;23.374;2022-09-09T07:57:28;94487.72;;;28.49;52.61
28131;BME280;15418;42.634;23.374;2022-09-09T07:59:55;94520.34;;;29.44;48.76
28131;BME280;15418;42.634;23.374;2022-09-09T08:02:22;94484.88;;;29.77;46.83
28131;BME280;15418;42.634;23.374;2022-09-09T08:04:48;94461.72;;;29.94;45.63
28131;BME280;15418;42.634;23.374;2022-09-09T08:07:13;94504.00;;;29.89;46.92
28131;BME280;15418;42.634;23.374;2022-09-09T08:09:39;94495.25;;;27.82;57.03
28131;BME280;15418;42.634;23.374;2022-09-09T08:12:05;94498.81;;;27.34;58.91
28131;BME280;15418;42.634;23.374;2022-09-09T08:14:31;94508.63;;;27.65;58.53
28131;BME280;15418;42.634;23.374;2022-09-09T08:16:57;94484.13;;;27.82;59.67
28131;BME280;15418;42.634;23.374;2022-09-09T08:19:23;94497.13;;;28.19;54.40
28131;BME280;15418;42.634;23.374;2022-09-09T08:21:48;94514.72;;;28.34;53.52
28131;BME280;15418;42.634;23.374;2022-09-09T08:24:14;94492.50;;;27.89;54.56
28131;BME280;15418;42.634;23.374;2022-09-09T08:26:44;94502.22;;;27.57;56.18
28131;BME280;15418;42.634;23.374;2022-09-09T08:29:11;94480.38;;;26.80;59.78
28131;BME280;15418;42.634;23.374;2022-09-09T08:31:44;94510.91;;;26.46;66.06
28131;BME280;15418;42.634;23.374;2022-09-09T08:34:10;94506.03;;;25.59;71.26
28131;BME280;15418;42.634;23.374;2022-09-09T08:36:39;94482.59;;;26.37;65.53
28131;BME280;15418;42.634;23.374;2022-09-09T08:39:06;94475.56;;;26.77;63.47
28131;BME280;15418;42.634;23.374;2022-09-09T08:50:15;94500.75;;;27.74;57.01
28131;BME280;15418;42.634;23.374;2022-09-09T08:55:22;94496.97;;;27.49;58.91
28131;BME280;15418;42.634;23.374;2022-09-09T08:57:53;94502.41;;;27.00;61.72
28131;BME280;15418;42.634;23.374;2022-09-09T09:00:20;94465.41;;;26.62;62.31
28131;BME280;15418;42.634;23.374;2022-09-09T09:03:06;94498.47;;;27.01;62.92
28131;BME280;15418;42.634;23.374;2022-09-09T09:05:41;94497.41;;;27.13;62.11
28131;BME280;15418;42.634;23.374;2022-09-09T09:10:54;94470.84;;;27.19;58.86
28131;BME280;15418;42.634;23.374;2022-09-09T09:15:55;94497.91;;;27.26;60.03
28131;BME280;15418;42.634;23.374;2022-09-09T09:18:22;94498.22;;;27.55;60.90
28131;BME280;15418;42.634;23.374;2022-09-09T09:20:54;94498.25;;;27.58;61.48
28131;BME280;15418;42.634;23.374;2022-09-09T09:23:31;94491.09;;;27.20;62.73
28131;BME280;15418;42.634;23.374;2022-09-09T09:26:01;94482.16;;;27.00;66.50
28131;BME280;15418;42.634;23.374;2022-09-09T09:28:30;94459.59;;;27.46;60.69
28131;BME280;15418;42.634;23.374;2022-09-09T09:31:09;94486.41;;;27.72;61.20
28131;BME280;15418;42.634;23.374;2022-09-09T09:33:53;94496.72;;;26.86;64.92
28131;BME280;15418;42.634;23.374;2022-09-09T09:36:20;94478.47;;;25.97;70.33
28131;BME280;15418;42.634;23.374;2022-09-09T09:38:59;94496.59;;;25.64;73.87
28131;BME280;15418;42.634;23.374;2022-09-09T09:41:42;94481.81;;;27.05;67.11
28131;BME280;15418;42.634;23.374;2022-09-09T09:44:31;94495.06;;;27.60;62.63
28131;BME280;15418;42.634;23.374;2022-09-09T09:47:12;94483.38;;;27.92;61.43
28131;BME280;15418;42.634;23.374;2022-09-09T09:49:38;94467.63;;;28.14;58.17
28131;BME280;15418;42.634;23.374;2022-09-09T09:52:06;94437.13;;;27.76;58.77
28131;BME280;15418;42.634;23.374;2022-09-09T09:54:37;94410.03;;;27.18;61.12
28131;BME280;15418;42.634;23.374;2022-09-09T09:57:14;94433.63;;;27.38;62.04
28131;BME280;15418;42.634;23.374;2022-09-09T09:59:41;94469.75;;;26.59;67.04
28131;BME280;15418;42.634;23.374;2022-09-09T10:02:22;94451.34;;;26.13;70.39
28131;BME280;15418;42.634;23.374;2022-09-09T10:05:01;94429.94;;;27.23;63.71
28131;BME280;15418;42.634;23.374;2022-09-09T10:07:27;94400.75;;;27.48;61.05
28131;BME280;15418;42.634;23.374;2022-09-09T10:09:57;94457.69;;;28.17;59.88
28131;BME280;15418;42.634;23.374;2022-09-09T10:15:31;94465.41;;;28.49;57.12
28131;BME280;15418;42.634;23.374;2022-09-09T10:18:13;94469.69;;;28.28;58.01
28131;BME280;15418;42.634;23.374;2022-09-09T10:20:57;94417.78;;;27.98;57.95
28131;BME280;15418;42.634;23.374;2022-09-09T10:26:26;94474.03;;;27.66;62.05
28131;BME280;15418;42.634;23.374;2022-09-09T10:29:15;94436.25;;;27.17;64.99
28131;BME280;15418;42.634;23.374;2022-09-09T10:34:58;94488.91;;;26.68;70.27
28131;BME280;15418;42.634;23.374;2022-09-09T10:40:38;94479.94;;;25.64;79.78
28131;BME280;15418;42.634;23.374;2022-09-09T10:45:49;94491.66;;;25.53;80.58
28131;BME280;15418;42.634;23.374;2022-09-09T10:48:39;94489.75;;;25.58;82.98
28131;BME280;15418;42.634;23.374;2022-09-09T10:56:21;94471.34;;;25.73;81.26
28131;BME280;15418;42.634;23.374;2022-09-09T10:58:53;94467.06;;;26.06;79.29
28131;BME280;15418;42.634;23.374;2022-09-09T11:01:28;94447.19;;;26.30;75.50
28131;BME280;15418;42.634;23.374;2022-09-09T11:04:05;94466.16;;;26.55;73.64
28131;BME280;15418;42.634;23.374;2022-09-09T11:06:40;94477.41;;;26.36;74.83
28131;BME280;15418;42.634;23.374;2022-09-09T11:09:14;94485.66;;;26.28;75.46
28131;BME280;15418;42.634;23.374;2022-09-09T11:11:52;94482.41;;;26.23;75.94
28131;BME280;15418;42.634;23.374;2022-09-09T11:17:03;94493.59;;;26.30;75.42
28131;BME280;15418;42.634;23.374;2022-09-09T11:19:41;94488.81;;;26.00;79.37
28131;BME280;15418;42.634;23.374;2022-09-09T11:24:48;94425.72;;;25.97;77.33
28131;BME280;15418;42.634;23.374;2022-09-09T11:27:20;94469.84;;;26.67;76.98
28131;BME280;15418;42.634;23.374;2022-09-09T11:35:29;94451.22;;;27.46;71.43
28131;BME280;15418;42.634;23.374;2022-09-09T11:40:45;94424.19;;;27.47;69.29
28131;BME280;15418;42.634;23.374;2022-09-09T11:43:18;94412.25;;;27.42;69.06
28131;BME280;15418;42.634;23.374;2022-09-09T11:45:53;94427.47;;;26.39;75.47
28131;BME280;15418;42.634;23.374;2022-09-09T11:48:34;94401.25;;;26.37;77.03
28131;BME280;15418;42.634;23.374;2022-09-09T11:51:10;94397.06;;;26.20;79.06
28131;BME280;15418;42.634;23.374;2022-09-09T11:56:54;94376.56;;;26.69;76.26
28131;BME280;15418;42.634;23.374;2022-09-09T12:06:59;94398.38;;;27.05;75.07
28131;BME280;15418;42.634;23.374;2022-09-09T12:09:44;94413.56;;;26.73;75.31
28131;BME280;15418;42.634;23.374;2022-09-09T12:17:26;94313.50;;;26.73;71.17
28131;BME280;15418;42.634;23.374;2022-09-09T12:20:03;94387.88;;;27.32;70.56
28131;BME280;15418;42.634;23.374;2022-09-09T12:22:49;94384.69;;;27.30;71.71
28131;BME280;15418;42.634;23.374;2022-09-09T12:28:09;94361.31;;;26.90;73.31
28131;BME280;15418;42.634;23.374;2022-09-09T12:33:12;94374.03;;;27.39;72.97
28131;BME280;15418;42.634;23.374;2022-09-09T12:35:39;94329.47;;;27.36;69.75
28131;BME280;15418;42.634;23.374;2022-09-09T12:38:13;94347.56;;;27.64;69.67
28131;BME280;15418;42.634;23.374;2022-09-09T12:40:40;94357.97;;;27.74;68.59
28131;BME280;15418;42.634;23.374;2022-09-09T12:43:18;94337.56;;;27.52;69.96
28131;BME280;15418;42.634;23.374;2022-09-09T12:45:45;94332.81;;;27.52;68.54
28131;BME280;15418;42.634;23.374;2022-09-09T12:48:11;94328.94;;;27.16;69.33
28131;BME280;15418;42.634;23.374;2022-09-09T12:50:46;94340.09;;;27.19;71.05
28131;BME280;15418;42.634;23.374;2022-09-09T12:53:21;94312.63;;;27.10;70.00
28131;BME280;15418;42.634;23.374;2022-09-09T12:55:51;94369.19;;;27.29;73.91
28131;BME280;15418;42.634;23.374;2022-09-09T12:58:18;94326.41;;;26.96;73.59
28131;BME280;15418;42.634;23.374;2022-09-09T13:00:50;94353.91;;;27.08;73.35
28131;BME280;15418;42.634;23.374;2022-09-09T13:03:18;94323.69;;;27.59;70.02
28131;BME280;15418;42.634;23.374;2022-09-09T13:05:46;94331.84;;;28.00;66.39
28131;BME280;15418;42.634;23.374;2022-09-09T13:08:13;94337.91;;;28.13;66.26
28131;BME280;15418;42.634;23.374;2022-09-09T13:13:16;94329.75;;;27.75;69.37
28131;BME280;15418;42.634;23.374;2022-09-09T13:15:57;94291.38;;;27.40;69.62
28131;BME280;15418;42.634;23.374;2022-09-09T13:18:45;94296.88;;;27.33;69.52
28131;BME280;15418;42.634;23.374;2022-09-09T13:21:11;94330.09;;;27.63;70.72
28131;BME280;15418;42.634;23.374;2022-09-09T13:23:37;94295.25;;;27.28;70.90
28131;BME280;15418;42.634;23.374;2022-09-09T13:26:05;94287.81;;;27.43;71.55
28131;BME280;15418;42.634;23.374;2022-09-09T13:28:33;94325.38;;;27.74;69.73
28131;BME280;15418;42.634;23.374;2022-09-09T13:31:04;94312.59;;;27.66;70.92
28131;BME280;15418;42.634;23.374;2022-09-09T13:33:38;94297.63;;;27.26;72.29
28131;BME280;15418;42.634;23.374;2022-09-09T13:36:08;94244.44;;;26.75;73.79
28131;BME280;15418;42.634;23.374;2022-09-09T13:38:37;94292.63;;;26.94;74.77
28131;BME280;15418;42.634;23.374;2022-09-09T13:41:05;94309.31;;;26.94;75.82
28131;BME280;15418;42.634;23.374;2022-09-09T13:43:55;94310.03;;;26.84;77.07
28131;BME280;15418;42.634;23.374;2022-09-09T13:46:31;94326.75;;;26.87;77.75
28131;BME280;15418;42.634;23.374;2022-09-09T13:48:59;94305.00;;;26.59;79.41
28131;BME280;15418;42.634;23.374;2022-09-09T13:54:08;94262.50;;;26.13;83.67
28131;BME280;15418;42.634;23.374;2022-09-09T13:56:35;94296.03;;;26.31;84.07
28131;BME280;15418;42.634;23.374;2022-09-09T13:59:01;94282.38;;;26.15;83.81
28131;BME280;15418;42.634;23.374;2022-09-09T14:01:27;94264.94;;;26.19;83.95
28131;BME280;15418;42.634;23.374;2022-09-09T14:03:53;94249.16;;;26.26;81.76
28131;BME280;15418;42.634;23.374;2022-09-09T14:06:18;94279.53;;;26.53;81.12
28131;BME280;15418;42.634;23.374;2022-09-09T14:08:47;94285.97;;;26.57;80.74
28131;BME280;15418;42.634;23.374;2022-09-09T14:11:13;94285.13;;;26.57;80.84
28131;BME280;15418;42.634;23.374;2022-09-09T14:13:38;94265.75;;;26.64;78.96
28131;BME280;15418;42.634;23.374;2022-09-09T14:16:04;94302.53;;;26.91;78.21
28131;BME280;15418;42.634;23.374;2022-09-09T14:18:30;94260.69;;;26.73;78.49
28131;BME280;15418;42.634;23.374;2022-09-09T14:20:55;94280.25;;;26.88;78.78
28131;BME280;15418;42.634;23.374;2022-09-09T14:23:22;94294.16;;;26.88;77.93
28131;BME280;15418;42.634;23.374;2022-09-09T14:25:47;94259.38;;;26.60;78.59
28131;BME280;15418;42.634;23.374;2022-09-09T14:28:14;94223.00;;;26.31;79.13
28131;BME280;15418;42.634;23.374;2022-09-09T14:30:41;94284.38;;;26.60;80.42
28131;BME280;15418;42.634;23.374;2022-09-09T14:33:09;94245.41;;;26.53;80.22
28131;BME280;15418;42.634;23.374;2022-09-09T14:35:36;94274.91;;;26.68;80.55
28131;BME280;15418;42.634;23.374;2022-09-09T14:38:02;94246.25;;;26.57;80.52
28131;BME280;15418;42.634;23.374;2022-09-09T14:40:28;94234.59;;;26.40;80.73
28131;BME280;15418;42.634;23.374;2022-09-09T14:42:54;94248.41;;;26.33;82.41
28131;BME280;15418;42.634;23.374;2022-09-09T14:45:19;94276.66;;;26.39;83.35
28131;BME280;15418;42.634;23.374;2022-09-09T14:47:46;94236.50;;;25.95;85.68
28131;BME280;15418;42.634;23.374;2022-09-09T14:50:12;94220.06;;;25.79;86.67
28131;BME280;15418;42.634;23.374;2022-09-09T14:52:39;94266.94;;;25.88;86.23
28131;BME280;15418;42.634;23.374;2022-09-09T14:55:05;94232.47;;;25.55;86.77
28131;BME280;15418;42.634;23.374;2022-09-09T14:57:31;94262.81;;;25.74;87.79
28131;BME280;15418;42.634;23.374;2022-09-09T14:59:59;94229.53;;;25.40;89.15